Lumby, Canada
Current Conditions -  °F | °C
As of 7:00 PM on Wednesday 22 Oct 2014 (Local Time) from CYLW Reporting Station
Light Rain Light Rain  
Wind Chill: 50°   Ceiling: 4200
Heat Index: 50°   Visibility: 9mi
Dew Point: 48°   Wind: 6mph
Humidity: 94%   Direction: 350°N
Pressure: 29.66"   Gusts: NA
Location:  50.25°N, 118.97°W
Report Text: CYLW 230200Z AUTO 35005KT 9SM -RA BKN042 OVC065 10/09 A2966 RMK PCPN 0.5MM PAST HR SLP047
Loading
Personal Weather Stations






























Interactive Weather Map
Tropical Storm Tracking
New forecast layout! Learn more

10-Day Weather Forecast

Advertisements
Track Severe Weather on mobile